Terminal Aerodrome Forecast
Issued by NWS

Home | Current Version | Previous Version | Text Only | Print | Product List | Glossary On
Versions: 1 2 3 4 5 6 7 8 9 10 11 12
000
FTUS44 KEPZ 300500
TAFTCS
TAF
KTCS 300520Z 3006/3106 29007KT P6SM SCT120 OVC220
     FM301800 16009KT P6SM SCT070 BKN100 BKN200
     FM302200 24010KT P6SM VCTS SCT070CB BKN100 BKN200=

USA.gov is the U.S. government's official web portal to all federal, state and local government web resources and services.